Time;durP1;ratioP1;P1;durP2;ratioP2;P2;SDS_P1;SDS_P2;PMS_P1;PMS_P2;Temp;Humidity;BMP_temperature;BMP_pressure;BME280_temperature;BME280_humidity;BME280_pressure;Samples;Min_cycle;Max_cycle;Signal;HPM_P1;HPM_P2
2021/11/07 05:01:25;;;;;;;25.47;18.77;;;3.20;99.90;;;;;;5504643;23;20462;-68
2021/11/07 05:03:52;;;;;;;23.27;17.27;;;3.20;99.90;;;;;;4989068;28;20542;-68
2021/11/07 05:06:19;;;;;;;25.27;18.73;;;3.20;99.90;;;;;;4990075;28;20505;-68
2021/11/07 05:08:46;;;;;;;19.50;16.03;;;3.20;99.90;;;;;;4982855;28;20450;-68
2021/11/07 05:11:13;;;;;;;22.90;18.07;;;3.20;99.90;;;;;;4985926;28;20485;-69
2021/11/07 05:13:40;;;;;;;22.53;16.50;;;3.20;99.90;;;;;;4986116;28;20465;-69
2021/11/07 05:16:06;;;;;;;19.87;15.73;;;3.20;99.90;;;;;;4985848;28;20471;-68
2021/11/07 05:18:34;;;;;;;20.93;16.47;;;3.20;99.90;;;;;;4986286;28;20830;-69
2021/11/07 05:21:02;;;;;;;20.20;16.60;;;3.20;99.90;;;;;;4985049;28;20474;-68
2021/11/07 05:23:29;;;;;;;18.17;15.57;;;3.20;99.90;;;;;;4983388;28;20459;-69
2021/11/07 05:25:57;;;;;;;18.70;15.70;;;3.20;99.90;;;;;;4983167;28;20451;-68
2021/11/07 05:28:24;;;;;;;19.77;15.70;;;3.20;99.90;;;;;;4984015;28;20455;-69
2021/11/07 05:30:51;;;;;;;21.33;16.20;;;3.10;99.90;;;;;;4983455;28;20525;-69
2021/11/07 05:33:18;;;;;;;22.53;15.93;;;3.10;99.90;;;;;;4983541;28;20941;-69
2021/11/07 05:35:46;;;;;;;21.77;16.60;;;3.10;99.90;;;;;;4983115;28;21004;-69
2021/11/07 05:38:13;;;;;;;20.67;15.33;;;3.10;99.90;;;;;;4983767;28;20462;-69
2021/11/07 05:40:40;;;;;;;21.30;16.87;;;3.20;99.90;;;;;;4996272;28;20467;-69
2021/11/07 05:43:06;;;;;;;21.43;15.40;;;3.10;99.90;;;;;;4983324;28;20451;-69
2021/11/07 05:45:33;;;;;;;24.77;18.23;;;3.00;99.90;;;;;;4980308;28;20459;-69
2021/11/07 05:48:00;;;;;;;20.90;17.57;;;3.00;99.90;;;;;;4978164;28;20469;-68
2021/11/07 05:50:27;;;;;;;20.80;17.10;;;2.90;99.90;;;;;;4978388;28;20818;-68
2021/11/07 05:52:56;;;;;;;23.80;17.93;;;2.90;99.90;;;;;;4977420;28;20845;-69
2021/11/07 05:55:23;;;;;;;23.23;17.60;;;2.80;99.90;;;;;;4977738;28;20458;-68
2021/11/07 05:57:50;;;;;;;22.30;16.97;;;2.80;99.90;;;;;;4977940;28;20458;-68
2021/11/07 06:00:19;;;;;;;22.37;16.30;;;2.90;99.90;;;;;;4981709;28;20459;-68
2021/11/07 06:02:49;;;;;;;18.00;16.10;;;2.90;99.90;;;;;;4981638;28;20443;-68
2021/11/07 06:05:18;;;;;;;20.27;16.87;;;2.80;99.90;;;;;;4977215;28;20810;-69
2021/11/07 06:07:44;;;;;;;20.57;15.93;;;2.80;99.90;;;;;;4977303;28;20451;-69
2021/11/07 06:10:13;;;;;;;23.53;17.63;;;2.80;99.90;;;;;;4977330;28;20450;-68
2021/11/07 06:12:40;;;;;;;20.87;16.77;;;2.80;99.90;;;;;;4977549;28;20470;-68
2021/11/07 06:15:08;;;;;;;26.80;20.27;;;2.80;99.90;;;;;;4976694;28;20466;-69
2021/11/07 06:17:35;;;;;;;24.27;19.60;;;2.70;99.90;;;;;;4977895;28;21113;-68
2021/11/07 06:20:02;;;;;;;25.80;19.97;;;2.70;99.90;;;;;;4988167;28;20462;-69
2021/11/07 06:22:29;;;;;;;26.60;20.90;;;2.70;99.90;;;;;;4988080;28;20482;-68
2021/11/07 06:24:58;;;;;;;29.10;20.47;;;2.70;99.90;;;;;;4988091;28;20451;-69
2021/11/07 06:27:29;;;;;;;28.60;21.30;;;2.70;99.90;;;;;;4984452;28;20462;-68
2021/11/07 06:29:55;;;;;;;29.80;22.00;;;2.70;99.90;;;;;;4977894;28;20493;-70
2021/11/07 06:32:22;;;;;;;32.60;22.47;;;2.60;99.90;;;;;;4978192;28;20482;-69
2021/11/07 06:34:49;;;;;;;29.80;21.97;;;2.60;99.90;;;;;;4978365;28;20950;-70
2021/11/07 06:37:16;;;;;;;30.83;22.30;;;2.70;99.90;;;;;;4978379;28;20479;-68
2021/11/07 06:39:43;;;;;;;32.07;23.10;;;2.60;99.90;;;;;;4980111;28;20832;-69
2021/11/07 06:42:11;;;;;;;30.67;22.73;;;2.70;99.90;;;;;;4984297;28;20996;-69
2021/11/07 06:44:40;;;;;;;30.17;21.50;;;2.60;99.90;;;;;;4982177;28;20650;-68
2021/11/07 06:47:08;;;;;;;24.03;19.80;;;2.70;99.90;;;;;;4985053;28;20446;-67
2021/11/07 06:49:35;;;;;;;28.03;20.83;;;2.80;99.90;;;;;;4982491;28;20855;-68
2021/11/07 06:52:03;;;;;;;25.90;21.20;;;2.90;99.90;;;;;;4982568;28;20494;-68
2021/11/07 06:54:30;;;;;;;26.10;19.30;;;3.00;99.90;;;;;;4989715;28;20451;-67
2021/11/07 06:56:57;;;;;;;26.40;19.60;;;3.10;99.90;;;;;;4991775;28;21004;-68
2021/11/07 06:59:24;;;;;;;25.20;19.33;;;3.30;99.90;;;;;;4979152;28;20439;-67
2021/11/07 07:01:53;;;;;;;23.47;18.00;;;3.50;99.90;;;;;;4977680;28;20905;-68
2021/11/07 07:04:19;;;;;;;23.47;17.17;;;3.60;99.90;;;;;;4976378;28;20452;-66
2021/11/07 07:06:48;;;;;;;24.07;18.80;;;3.70;99.90;;;;;;4976594;28;20459;-65
2021/11/07 07:09:21;;;;;;;21.33;15.83;;;3.80;99.90;;;;;;4976313;28;20510;-67
2021/11/07 07:11:51;;;;;;;17.23;15.30;;;4.10;99.90;;;;;;4976719;28;20475;-66
2021/11/07 07:14:21;;;;;;;15.93;14.10;;;4.50;99.90;;;;;;4976227;28;20461;-66
2021/11/07 07:16:55;;;;;;;14.17;12.67;;;4.90;99.90;;;;;;4976024;28;20463;-66
2021/11/07 07:19:38;;;;;;;12.50;10.93;;;5.40;99.90;;;;;;4976261;28;20440;-67
2021/11/07 07:22:17;;;;;;;12.37;11.07;;;6.10;99.90;;;;;;4976234;28;20973;-66
2021/11/07 07:25:17;;;;;;;15.73;10.70;;;7.00;99.90;;;;;;4976032;28;20458;-67
2021/11/07 07:30:37;;;;;;;12.20;11.00;;;8.70;99.90;;;;;;4976820;28;20474;-67
2021/11/07 07:33:17;;;;;;;10.93;9.73;;;9.10;99.90;;;;;;4985852;28;20435;-67
2021/11/07 07:35:45;;;;;;;11.10;10.00;;;9.10;99.90;;;;;;4990652;28;20436;-67
2021/11/07 07:38:11;;;;;;;11.53;10.43;;;8.90;99.90;;;;;;4975926;28;20537;-66
2021/11/07 07:40:38;;;;;;;12.43;11.13;;;8.80;99.90;;;;;;4975558;28;20475;-66
2021/11/07 07:43:05;;;;;;;18.90;11.60;;;8.90;99.90;;;;;;4975692;28;20797;-66
2021/11/07 07:45:32;;;;;;;12.47;11.23;;;9.40;99.90;;;;;;4975891;28;20881;-67
2021/11/07 07:48:00;;;;;;;13.03;11.67;;;9.80;99.90;;;;;;4976376;28;20477;-66
2021/11/07 07:50:28;;;;;;;13.00;11.07;;;10.50;99.90;;;;;;4975646;28;20463;-67
2021/11/07 07:52:56;;;;;;;11.53;10.20;;;11.00;99.90;;;;;;4975837;28;20530;-66
2021/11/07 07:55:23;;;;;;;11.00;10.00;;;11.50;99.90;;;;;;4975527;28;20466;-66
2021/11/07 07:57:50;;;;;;;11.50;10.47;;;11.20;99.90;;;;;;4975787;28;20482;-67
2021/11/07 08:00:22;;;;;;;13.87;11.30;;;10.60;99.90;;;;;;4980081;28;20527;-66
2021/11/07 08:02:49;;;;;;;12.80;11.50;;;9.60;99.90;;;;;;4994829;28;20462;-67
2021/11/07 08:05:16;;;;;;;14.77;12.90;;;8.60;99.90;;;;;;4990643;28;20439;-67
2021/11/07 08:07:43;;;;;;;14.50;13.00;;;8.00;99.90;;;;;;4984814;28;20455;-67
2021/11/07 08:10:13;;;;;;;15.67;13.67;;;7.50;99.90;;;;;;4979287;28;20455;-66
2021/11/07 08:12:40;;;;;;;15.93;14.30;;;6.90;99.90;;;;;;4978836;28;20816;-67
2021/11/07 08:15:08;;;;;;;15.53;13.33;;;6.60;99.90;;;;;;4979015;28;20450;-67
2021/11/07 08:17:35;;;;;;;14.10;12.20;;;6.40;99.90;;;;;;4979235;28;20488;-66
2021/11/07 08:20:04;;;;;;;14.67;12.90;;;6.30;99.90;;;;;;4978955;28;20821;-66
2021/11/07 08:22:31;;;;;;;14.00;12.60;;;6.30;99.90;;;;;;4978792;28;20496;-67
2021/11/07 08:24:58;;;;;;;12.47;11.23;;;6.30;99.90;;;;;;4978803;28;20459;-67
2021/11/07 08:27:26;;;;;;;14.43;12.40;;;6.30;99.90;;;;;;4978521;28;20457;-67
2021/11/07 08:29:55;;;;;;;16.60;13.37;;;6.40;99.90;;;;;;4978582;28;20866;-67
2021/11/07 08:32:22;;;;;;;13.83;11.73;;;6.40;99.90;;;;;;4978669;28;20474;-66
2021/11/07 08:34:50;;;;;;;13.93;12.47;;;6.30;99.90;;;;;;4978424;28;20798;-67
2021/11/07 08:37:19;;;;;;;13.43;11.37;;;6.40;99.90;;;;;;4978394;28;20479;-67
2021/11/07 08:39:48;;;;;;;13.80;12.20;;;6.20;99.90;;;;;;4978658;28;20858;-67
2021/11/07 08:42:17;;;;;;;12.77;11.23;;;6.10;99.90;;;;;;4978623;28;20475;-67
2021/11/07 09:01:30;;;;;;;11.50;10.17;;;6.60;99.90;;;;;;4984337;28;20472;-67
2021/11/07 09:04:05;;;;;;;13.23;11.90;;;6.90;99.90;;;;;;4979754;28;20443;-67
2021/11/07 09:06:45;;;;;;;12.37;10.90;;;7.30;99.90;;;;;;4992242;28;20435;-67
2021/11/07 09:09:14;;;;;;;10.37;9.37;;;7.90;99.90;;;;;;4984994;28;20439;-67
2021/11/07 09:11:49;;;;;;;10.87;9.87;;;8.80;99.90;;;;;;4984811;28;20503;-67
2021/11/07 09:14:16;;;;;;;11.57;10.37;;;9.20;99.90;;;;;;4980439;28;20443;-66
2021/11/07 09:16:45;;;;;;;9.37;8.53;;;9.20;99.90;;;;;;4978040;28;20506;-66
2021/11/07 09:19:15;;;;;;;10.57;9.47;;;9.20;99.90;;;;;;4978169;28;20471;-67
2021/11/07 09:21:45;;;;;;;10.83;9.20;;;9.10;99.90;;;;;;4978438;28;20482;-66
2021/11/07 09:24:23;;;;;;;9.97;8.97;;;9.10;99.90;;;;;;4977753;28;20462;-67
2021/11/07 09:26:50;;;;;;;10.00;9.00;;;9.20;99.90;;;;;;4977726;28;20490;-67
2021/11/07 09:29:24;;;;;;;9.50;8.60;;;9.30;99.90;;;;;;4977863;28;20455;-67
2021/11/07 09:32:07;;;;;;;9.10;8.20;;;9.10;99.90;;;;;;4977928;28;20478;-68
2021/11/07 09:34:41;;;;;;;8.90;8.00;;;9.20;99.90;;;;;;4977904;28;20805;-67
2021/11/07 09:37:13;;;;;;;9.10;8.13;;;9.30;99.90;;;;;;4977701;28;20865;-67
2021/11/07 09:39:49;;;;;;;10.63;7.80;;;9.20;99.90;;;;;;4993307;28;20539;-68
2021/11/07 09:42:30;;;;;;;8.13;7.33;;;9.20;99.90;;;;;;4991221;28;20475;-68
2021/11/07 09:45:07;;;;;;;8.80;8.00;;;9.20;99.90;;;;;;4990961;28;20435;-67
2021/11/07 09:47:38;;;;;;;7.90;6.83;;;9.30;99.90;;;;;;4998139;28;20447;-67
2021/11/07 09:50:06;;;;;;;8.43;7.63;;;9.60;99.90;;;;;;4981357;28;20445;-68
2021/11/07 09:52:37;;;;;;;8.27;7.57;;;10.00;99.90;;;;;;4977163;28;20487;-67
2021/11/07 09:55:06;;;;;;;12.20;7.50;;;10.40;99.90;;;;;;4979412;28;20439;-67
2021/11/07 09:57:34;;;;;;;8.23;7.50;;;10.50;99.90;;;;;;4978317;28;20982;-67
2021/11/07 10:00:04;;;;;;;7.77;7.07;;;10.60;99.90;;;;;;4978547;28;20815;-67
2021/11/07 10:02:32;;;;;;;7.80;7.10;;;10.40;99.90;;;;;;4978327;28;20482;-67
2021/11/07 10:05:02;;;;;;;8.70;7.90;;;10.50;99.90;;;;;;4999579;28;20458;-68
2021/11/07 10:07:32;;;;;;;7.57;6.87;;;10.50;99.90;;;;;;4998799;28;20450;-67
2021/11/07 10:10:03;;;;;;;8.73;7.83;;;10.60;99.90;;;;;;4998390;28;20439;-67
2021/11/07 10:12:35;;;;;;;6.07;5.57;;;10.70;99.90;;;;;;4978337;28;20467;-67
2021/11/07 10:15:05;;;;;;;4.23;3.93;;;10.70;99.90;;;;;;4976669;28;20471;-66
2021/11/07 10:17:37;;;;;;;3.50;3.20;;;10.70;99.90;;;;;;4976801;28;20515;-66
2021/11/07 10:20:18;;;;;;;4.37;4.07;;;10.80;99.90;;;;;;4976683;28;20444;-67
2021/11/07 10:22:50;;;;;;;4.27;3.87;;;10.90;99.90;;;;;;4976435;28;20534;-67
2021/11/07 10:25:19;;;;;;;4.90;4.50;;;10.80;99.90;;;;;;4977408;28;20444;-66
2021/11/07 10:27:50;;;;;;;4.70;4.40;;;11.00;99.90;;;;;;4976525;28;20539;-66
2021/11/07 10:30:22;;;;;;;4.63;4.23;;;11.10;99.90;;;;;;4977013;28;20448;-67
2021/11/07 10:33:00;;;;;;;4.60;4.20;;;11.20;99.90;;;;;;4977341;28;20466;-66
2021/11/07 10:36:09;;;;;;;6.97;4.47;;;11.20;99.90;;;;;;4977244;28;20494;-67
2021/11/07 10:41:45;;;;;;;4.03;3.73;;;11.50;99.90;;;;;;4991896;28;20463;-66
2021/11/07 10:44:32;;;;;;;4.87;4.47;;;11.60;99.90;;;;;;4980241;28;20437;-66
2021/11/07 10:47:19;;;;;;;4.60;4.20;;;11.60;99.90;;;;;;4977224;28;20440;-66
2021/11/07 10:52:33;;;;;;;5.10;4.70;;;11.80;99.90;;;;;;4977281;28;20473;-66
2021/11/07 10:55:02;;;;;;;5.47;5.07;;;11.90;99.90;;;;;;4977004;28;20947;-65
2021/11/07 10:57:31;;;;;;;4.77;4.30;;;12.00;99.90;;;;;;4978984;28;20535;-66
2021/11/07 11:00:16;;;;;;;4.50;4.10;;;11.90;99.90;;;;;;4986599;28;20460;-66
2021/11/07 11:02:44;;;;;;;4.93;4.53;;;12.20;99.90;;;;;;4982871;28;20433;-66
2021/11/07 11:05:13;;;;;;;5.00;4.60;;;12.60;99.90;;;;;;4977549;28;20467;-66
2021/11/07 11:07:53;;;;;;;6.47;5.50;;;12.60;99.90;;;;;;4976809;28;20448;-66
2021/11/07 11:10:22;;;;;;;5.03;4.63;;;12.70;99.90;;;;;;4977029;28;20446;-66
2021/11/07 11:13:11;;;;;;;4.47;4.07;;;13.00;99.90;;;;;;4976946;28;20447;-66
2021/11/07 11:15:44;;;;;;;4.70;4.40;;;13.10;99.90;;;;;;4977175;28;20533;-65
2021/11/07 11:18:30;;;;;;;5.33;4.83;;;13.10;99.90;;;;;;4977270;28;20826;-66
2021/11/07 11:21:22;;;;;;;4.20;3.60;;;13.00;99.90;;;;;;4979292;28;20882;-66
2021/11/07 11:26:48;;;;;;;4.20;3.90;;;13.10;99.90;;;;;;4974090;28;20452;-66
2021/11/07 11:29:39;;;;;;;3.63;3.43;;;13.40;99.90;;;;;;4976081;28;20443;-66
2021/11/07 11:32:14;;;;;;;5.60;4.03;;;13.50;99.90;;;;;;4975993;28;20479;-66
2021/11/07 11:34:44;;;;;;;3.80;3.60;;;13.60;99.90;;;;;;4976373;28;20435;-66
2021/11/07 11:37:15;;;;;;;4.20;3.90;;;13.60;99.90;;;;;;4976158;28;20438;-66
2021/11/07 11:39:48;;;;;;;5.13;4.40;;;13.60;99.90;;;;;;4979344;28;20941;-66
2021/11/07 11:42:21;;;;;;;4.00;3.70;;;13.40;99.90;;;;;;4980967;28;20487;-66
2021/11/07 11:44:51;;;;;;;4.30;3.70;;;13.40;99.90;;;;;;4980239;28;20504;-66
2021/11/07 11:47:49;;;;;;;3.53;3.33;;;13.50;99.90;;;;;;4980322;28;20471;-66
2021/11/07 11:53:17;;;;;;;3.60;3.30;;;13.60;99.90;;;;;;4980039;28;20498;-67
2021/11/07 11:55:50;;;;;;;3.03;2.83;;;13.40;99.90;;;;;;4980632;28;20802;-66
2021/11/07 11:58:37;;;;;;;3.53;3.33;;;13.60;99.90;;;;;;4980023;28;20989;-66
2021/11/07 12:01:13;;;;;;;5.50;3.17;;;13.80;99.90;;;;;;4979755;28;20574;-66
2021/11/07 12:03:48;;;;;;;3.07;2.87;;;14.10;99.90;;;;;;4979443;28;20899;-66
2021/11/07 12:06:31;;;;;;;2.93;2.73;;;14.20;99.90;;;;;;4981470;28;20534;-67
2021/11/07 12:12:17;;;;;;;2.77;2.57;;;14.20;99.90;;;;;;4961001;28;20816;-67
2021/11/07 12:14:56;;;;;;;2.20;2.10;;;14.30;99.90;;;;;;4990104;28;20428;-67
2021/11/07 12:17:27;;;;;;;2.53;2.40;;;14.30;99.90;;;;;;4980586;28;20436;-65
2021/11/07 12:19:54;;;;;;;1.93;1.83;;;14.20;99.90;;;;;;4981784;28;20443;-66
2021/11/07 12:22:24;;;;;;;2.17;2.07;;;14.20;99.90;;;;;;4979693;28;20483;-67
2021/11/07 12:25:02;;;;;;;2.30;1.90;;;14.10;99.90;;;;;;4980058;28;20507;-67
2021/11/07 12:27:35;;;;;;;2.00;1.50;;;14.00;99.90;;;;;;4979358;28;21018;-67
2021/11/07 12:30:04;;;;;;;1.20;1.10;;;13.90;99.90;;;;;;4979781;28;20440;-66
2021/11/07 12:32:34;;;;;;;0.90;0.90;;;13.80;99.90;;;;;;4979681;28;20476;-66
2021/11/07 12:35:10;;;;;;;2.40;1.00;;;13.70;99.90;;;;;;4980618;28;20449;-66
2021/11/07 12:40:58;;;;;;;1.57;1.47;;;13.50;99.90;;;;;;4941664;29;20474;-66
2021/11/07 12:43:39;;;;;;;0.90;0.90;;;13.30;99.90;;;;;;4975252;28;20447;-67
2021/11/07 12:46:16;;;;;;;1.30;1.17;;;13.10;99.90;;;;;;4979302;28;20483;-67
2021/11/07 12:48:45;;;;;;;1.37;1.03;;;12.90;99.90;;;;;;4979016;28;20471;-66
2021/11/07 12:51:16;;;;;;;1.20;0.80;;;12.80;99.90;;;;;;4978152;28;21013;-67
2021/11/07 12:54:02;;;;;;;0.80;0.77;;;12.60;99.90;;;;;;4978915;28;20830;-66
2021/11/07 12:56:39;;;;;;;1.00;1.00;;;12.40;99.90;;;;;;4979372;28;20440;-66
2021/11/07 12:59:12;;;;;;;1.30;1.20;;;12.20;99.90;;;;;;4980161;28;20803;-67
2021/11/07 13:02:10;;;;;;;1.30;1.20;;;12.10;99.90;;;;;;4978737;28;20533;-66
2021/11/07 13:04:45;;;;;;;1.20;1.20;;;12.00;99.90;;;;;;4979308;28;20443;-66
2021/11/07 13:07:18;;;;;;;1.43;1.40;;;11.80;99.90;;;;;;4979300;28;20539;-67
2021/11/07 13:09:52;;;;;;;3.00;2.80;;;11.60;99.90;;;;;;4987225;28;20436;-66
2021/11/07 13:12:22;;;;;;;2.50;1.40;;;11.50;99.90;;;;;;4990643;28;20502;-67
2021/11/07 13:15:12;;;;;;;1.87;1.77;;;11.30;99.90;;;;;;4981192;28;20843;-66
2021/11/07 13:18:17;;;;;;;2.50;1.40;;;11.30;99.90;;;;;;4978385;28;20436;-66
2021/11/07 13:20:57;;;;;;;2.33;1.50;;;11.20;99.90;;;;;;4978411;28;20533;-67
2021/11/07 13:26:14;;;;;;;2.00;1.30;;;11.20;99.90;;;;;;4978505;28;20499;-66
2021/11/07 13:28:43;;;;;;;1.20;1.20;;;11.10;99.90;;;;;;4978690;28;20518;-67
2021/11/07 13:31:17;;;;;;;1.90;1.50;;;11.20;99.90;;;;;;4978077;28;20526;-68
2021/11/07 13:33:44;;;;;;;2.03;1.93;;;11.20;99.90;;;;;;4978267;28;20459;-67
2021/11/07 13:36:14;;;;;;;1.87;1.77;;;11.20;99.90;;;;;;4978050;28;20459;-66
2021/11/07 13:38:45;;;;;;;2.00;1.90;;;11.30;99.90;;;;;;4978716;28;20471;-67
2021/11/07 13:41:15;;;;;;;1.17;1.17;;;11.30;99.90;;;;;;4978258;28;20503;-67
2021/11/07 13:43:45;;;;;;;2.17;1.20;;;11.20;99.90;;;;;;4978354;28;20476;-66
2021/11/07 13:46:14;;;;;;;1.00;1.00;;;11.20;99.90;;;;;;4991227;28;20454;-67
2021/11/07 13:48:41;;;;;;;0.80;0.70;;;11.20;99.90;;;;;;4991276;28;20939;-67
2021/11/07 13:51:07;;;;;;;0.80;0.77;;;11.20;99.90;;;;;;4978792;28;20502;-67
2021/11/07 13:53:37;;;;;;;0.80;0.80;;;11.20;99.90;;;;;;4977696;28;20931;-66
2021/11/07 13:56:07;;;;;;;0.90;0.90;;;11.10;99.90;;;;;;4988869;28;20938;-66
2021/11/07 13:58:38;;;;;;;1.00;1.00;;;11.00;99.90;;;;;;4988777;28;20470;-66
2021/11/07 14:01:07;;;;;;;1.07;1.00;;;11.10;99.90;;;;;;4977959;28;20911;-66
2021/11/07 14:03:35;;;;;;;0.80;0.80;;;11.00;99.90;;;;;;4979330;28;20961;-67
2021/11/07 14:06:08;;;;;;;1.07;0.83;;;11.00;99.90;;;;;;4977883;28;20455;-66
2021/11/07 14:08:48;;;;;;;1.63;1.03;;;11.00;99.90;;;;;;4979641;28;20535;-66
2021/11/07 14:11:17;;;;;;;1.40;0.80;;;11.00;99.90;;;;;;4980450;28;20966;-66
2021/11/07 14:13:47;;;;;;;1.00;1.00;;;11.00;99.90;;;;;;4980121;28;20842;-66
2021/11/07 14:16:15;;;;;;;2.23;1.17;;;10.90;99.90;;;;;;4983728;28;20482;-66
2021/11/07 14:18:45;;;;;;;1.37;1.27;;;10.90;99.90;;;;;;4983526;28;20475;-65
2021/11/07 14:21:14;;;;;;;1.47;1.47;;;10.90;99.90;;;;;;4982715;28;20484;-66
2021/11/07 14:23:44;;;;;;;1.43;1.37;;;10.90;99.90;;;;;;4983062;28;20459;-66
2021/11/07 14:26:16;;;;;;;1.03;1.00;;;10.80;99.90;;;;;;4988152;28;20459;-65
2021/11/07 14:28:58;;;;;;;2.30;1.80;;;10.90;99.90;;;;;;4990023;28;20443;-66
2021/11/07 14:31:31;;;;;;;1.67;1.40;;;10.90;99.90;;;;;;4992068;28;20468;-65
2021/11/07 14:34:04;;;;;;;1.00;0.83;;;10.90;99.90;;;;;;4984332;28;20451;-66
2021/11/07 14:36:53;;;;;;;1.10;1.10;;;11.00;99.90;;;;;;4984062;28;20444;-65
2021/11/07 14:42:19;;;;;;;2.00;0.93;;;11.00;99.90;;;;;;4977199;28;20518;-68
2021/11/07 14:44:50;;;;;;;1.10;1.07;;;11.00;99.90;;;;;;4976651;28;20436;-69
2021/11/07 14:47:27;;;;;;;0.80;0.80;;;11.00;99.90;;;;;;4976394;28;20970;-69
2021/11/07 14:50:27;;;;;;;1.00;1.00;;;11.00;99.90;;;;;;4976812;28;20439;-66
2021/11/07 14:53:02;;;;;;;1.27;1.10;;;11.00;99.90;;;;;;4976199;28;20498;-67
2021/11/07 14:55:33;;;;;;;1.30;1.30;;;11.30;99.90;;;;;;4976430;28;20957;-66
2021/11/07 15:01:10;;;;;;;1.07;0.90;;;11.70;99.90;;;;;;4975723;28;20486;-68
2021/11/07 15:03:47;;;;;;;0.93;0.93;;;11.70;99.90;;;;;;4976253;28;20550;-68
2021/11/07 15:06:31;;;;;;;0.93;0.70;;;11.60;99.90;;;;;;4975978;28;20533;-68
2021/11/07 15:09:01;;;;;;;1.00;1.00;;;11.60;99.90;;;;;;4976169;28;20439;-67
2021/11/07 15:11:47;;;;;;;1.57;1.20;;;11.60;99.90;;;;;;4976152;28;20479;-68
2021/11/07 15:17:31;;;;;;;1.60;0.90;;;11.60;99.90;;;;;;4935839;29;20472;-67
2021/11/07 15:20:15;;;;;;;1.10;1.00;;;11.50;99.90;;;;;;4992234;28;20464;-68
2021/11/07 15:22:47;;;;;;;2.00;1.77;;;11.60;99.90;;;;;;4994759;28;20839;-68
2021/11/07 15:25:14;;;;;;;2.57;2.37;;;11.50;99.90;;;;;;4978319;28;20473;-67
2021/11/07 15:27:41;;;;;;;4.60;3.20;;;11.50;99.90;;;;;;4975703;28;20911;-67
2021/11/07 15:30:15;;;;;;;2.47;2.27;;;11.40;99.90;;;;;;4975589;28;20977;-68
2021/11/07 15:32:43;;;;;;;4.23;2.40;;;11.30;99.90;;;;;;4975847;28;20539;-68
2021/11/07 15:35:21;;;;;;;4.30;3.90;;;11.30;99.90;;;;;;4975991;28;20455;-67
2021/11/07 15:37:49;;;;;;;5.40;4.87;;;11.30;99.90;;;;;;4975957;28;20962;-67
2021/11/07 15:40:17;;;;;;;6.93;5.70;;;11.20;99.90;;;;;;4975664;28;20486;-67
2021/11/07 15:42:46;;;;;;;5.43;4.00;;;11.20;99.90;;;;;;4975931;28;20456;-68
2021/11/07 15:45:17;;;;;;;1.73;1.63;;;11.20;99.90;;;;;;4975862;28;20456;-68
2021/11/07 15:47:46;;;;;;;4.23;3.83;;;11.10;99.90;;;;;;4976050;28;20440;-67
2021/11/07 15:50:22;;;;;;;1.93;1.83;;;11.10;99.90;;;;;;4976821;28;20482;-68
2021/11/07 15:52:55;;;;;;;2.50;2.30;;;11.00;99.90;;;;;;4976279;28;20519;-67
2021/11/07 15:55:28;;;;;;;4.13;3.83;;;10.90;99.90;;;;;;4975973;28;20475;-66
2021/11/07 15:58:31;;;;;;;3.10;2.90;;;10.70;99.90;;;;;;4980348;28;20416;-67
2021/11/07 16:01:08;;;;;;;4.10;3.80;;;10.70;99.90;;;;;;4998485;28;20470;-67
2021/11/07 16:03:41;;;;;;;2.30;2.20;;;10.70;99.90;;;;;;4998618;28;20486;-67
2021/11/07 16:06:26;;;;;;;2.43;2.30;;;10.50;99.90;;;;;;4997751;28;20440;-67
2021/11/07 16:09:05;;;;;;;2.70;2.50;;;10.40;99.90;;;;;;4976084;28;20447;-66
2021/11/07 16:11:36;;;;;;;2.37;2.20;;;10.30;99.90;;;;;;4975569;28;20481;-67
2021/11/07 16:14:27;;;;;;;1.97;1.87;;;10.30;99.90;;;;;;4975425;28;20444;-68
2021/11/07 16:16:57;;;;;;;2.83;2.63;;;10.30;99.90;;;;;;4975625;28;20455;-67
2021/11/07 16:19:27;;;;;;;2.50;2.40;;;10.20;99.90;;;;;;4976318;28;20479;-69
2021/11/07 16:21:54;;;;;;;3.00;2.50;;;10.20;99.90;;;;;;4975279;28;21073;-69
2021/11/07 16:24:25;;;;;;;2.40;2.30;;;10.20;99.90;;;;;;4975445;28;20451;-66
2021/11/07 16:26:55;;;;;;;2.40;2.20;;;10.20;99.90;;;;;;4979164;28;20443;-68
2021/11/07 16:29:24;;;;;;;2.60;2.40;;;10.10;99.90;;;;;;4979376;28;20530;-68
2021/11/07 16:31:59;;;;;;;3.80;3.23;;;10.10;99.90;;;;;;4978576;28;20479;-69
2021/11/07 16:34:26;;;;;;;3.80;3.50;;;10.10;99.90;;;;;;4978711;28;20439;-69
2021/11/07 16:36:54;;;;;;;3.40;3.20;;;10.10;99.90;;;;;;4979866;28;20463;-69
2021/11/07 16:39:25;;;;;;;5.17;3.87;;;10.10;99.90;;;;;;4994619;28;20474;-70
2021/11/07 16:41:54;;;;;;;4.30;3.97;;;10.10;99.90;;;;;;4990059;28;20478;-71
2021/11/07 16:44:22;;;;;;;5.57;3.00;;;9.90;99.90;;;;;;4989988;28;20454;-68
2021/11/07 16:46:53;;;;;;;4.67;2.60;;;9.90;99.90;;;;;;4987177;28;20450;-69
2021/11/07 16:49:22;;;;;;;3.10;2.90;;;9.90;99.90;;;;;;4981364;28;20440;-67
2021/11/07 16:51:53;;;;;;;3.50;3.30;;;9.90;99.90;;;;;;4988587;28;20471;-68
2021/11/07 16:54:24;;;;;;;9.07;8.10;;;9.90;99.90;;;;;;4992976;28;20427;-68
2021/11/07 16:56:51;;;;;;;7.97;7.17;;;9.90;99.90;;;;;;4986830;28;20433;-68
2021/11/07 17:02:04;;;;;;;4.13;2.53;;;9.90;99.90;;;;;;4977627;28;20485;-67
2021/11/07 17:04:35;;;;;;;3.27;2.97;;;9.80;99.90;;;;;;4993780;28;20572;-67
2021/11/07 17:07:05;;;;;;;3.00;2.80;;;9.70;99.90;;;;;;4991634;28;20503;-68
2021/11/07 17:09:41;;;;;;;2.53;2.40;;;9.70;99.90;;;;;;4992431;28;20463;-68
2021/11/07 17:12:12;;;;;;;4.80;3.03;;;9.70;99.90;;;;;;4978293;28;20845;-67
2021/11/07 17:14:41;;;;;;;4.25;3.95;;;9.70;99.90;;;;;;4977775;28;20458;-69
2021/11/07 17:17:11;;;;;;;4.50;4.10;;;9.70;99.90;;;;;;4979154;28;20257;-68
2021/11/07 17:19:43;;;;;;;3.50;3.20;;;9.70;99.90;;;;;;4978159;28;20527;-67
2021/11/07 17:22:18;;;;;;;3.90;3.60;;;9.80;99.90;;;;;;4977545;28;20475;-67
2021/11/07 17:24:50;;;;;;;2.77;2.63;;;9.70;99.90;;;;;;4977849;28;20449;-66
2021/11/07 17:27:27;;;;;;;3.83;3.50;;;9.60;99.90;;;;;;4977979;28;20499;-67
2021/11/07 17:29:58;;;;;;;3.23;3.03;;;9.70;99.90;;;;;;4978006;28;20441;-66
2021/11/07 17:32:28;;;;;;;3.07;2.97;;;9.70;99.90;;;;;;4977488;28;20491;-67
2021/11/07 17:34:58;;;;;;;3.13;2.90;;;9.70;99.90;;;;;;4995150;28;20455;-67
2021/11/07 17:37:28;;;;;;;2.80;2.70;;;9.60;99.90;;;;;;4982611;28;20442;-67
2021/11/07 17:49:08;;;;;;;2.40;2.30;;;9.40;99.90;;;;;;5105058;28;20553;-68
2021/11/07 17:54:33;;;;;;;5.23;4.83;;;9.40;99.90;;;;;;5112813;28;20410;-68
2021/11/07 17:57:01;;;;;;;2.30;2.20;;;9.30;99.90;;;;;;5113134;28;20824;-67
2021/11/07 17:59:30;;;;;;;2.07;2.03;;;9.30;99.90;;;;;;5112376;28;20458;-67
2021/11/07 18:01:57;;;;;;;2.13;2.00;;;9.30;99.90;;;;;;5112444;28;20482;-68
2021/11/07 18:04:24;;;;;;;1.97;1.87;;;9.30;99.90;;;;;;5112540;28;20435;-68
2021/11/07 18:06:55;;;;;;;1.70;1.70;;;9.20;99.90;;;;;;5112665;28;20942;-68
2021/11/07 18:09:24;;;;;;;1.80;1.80;;;9.30;99.90;;;;;;5113776;28;20437;-66
2021/11/07 18:11:53;;;;;;;2.40;2.30;;;9.30;99.90;;;;;;5112610;28;20494;-67
2021/11/07 18:14:21;;;;;;;2.20;1.93;;;9.20;99.90;;;;;;5112262;28;20435;-68
2021/11/07 18:16:50;;;;;;;2.50;2.40;;;9.10;99.90;;;;;;5114595;28;20451;-67
2021/11/07 18:19:17;;;;;;;2.43;2.30;;;9.20;99.90;;;;;;5111421;28;20941;-67
2021/11/07 18:24:25;;;;;;;3.00;2.70;;;9.20;99.90;;;;;;5107845;28;20431;-68
2021/11/07 18:26:55;;;;;;;2.70;2.47;;;9.10;99.90;;;;;;5118443;28;20435;-68
2021/11/07 18:29:23;;;;;;;3.00;2.80;;;9.10;99.90;;;;;;5116326;28;20783;-67
2021/11/07 18:31:51;;;;;;;2.30;2.20;;;9.20;99.90;;;;;;5111326;28;20466;-68
2021/11/07 18:34:17;;;;;;;2.30;2.20;;;9.10;99.90;;;;;;5111118;28;20942;-67
2021/11/07 18:36:44;;;;;;;2.30;2.20;;;9.10;99.90;;;;;;5111638;28;20447;-67
2021/11/07 18:39:14;;;;;;;2.00;2.00;;;9.10;99.90;;;;;;5111101;28;20447;-67
2021/11/07 18:41:41;;;;;;;2.63;2.37;;;9.10;99.90;;;;;;5110840;28;20563;-67
2021/11/07 18:44:08;;;;;;;2.57;2.47;;;9.10;99.90;;;;;;5111678;28;20457;-67
2021/11/07 18:46:35;;;;;;;3.43;3.23;;;9.10;99.90;;;;;;5112051;28;20455;-67
2021/11/07 18:49:03;;;;;;;3.20;3.00;;;9.10;99.90;;;;;;5111349;28;20439;-68
2021/11/07 18:51:31;;;;;;;4.00;3.70;;;9.10;99.90;;;;;;5111637;28;20477;-67
2021/11/07 18:53:58;;;;;;;3.10;3.00;;;9.10;99.90;;;;;;5099214;28;20457;-68
2021/11/07 18:56:25;;;;;;;2.80;2.70;;;9.00;99.90;;;;;;5099165;28;20803;-67
2021/11/07 18:58:52;;;;;;;6.70;3.97;;;9.10;99.90;;;;;;5097906;28;20482;-67
2021/11/07 19:01:18;;;;;;;4.33;4.03;;;9.10;99.90;;;;;;5097584;28;20491;-70
2021/11/07 19:03:47;;;;;;;4.73;4.43;;;9.10;99.90;;;;;;5099675;28;20854;-68
2021/11/07 19:06:15;;;;;;;7.97;7.33;;;9.10;99.90;;;;;;5098498;28;20474;-68
2021/11/07 19:08:43;;;;;;;7.20;6.40;;;9.20;99.90;;;;;;5098502;28;20444;-68
2021/11/07 19:11:11;;;;;;;5.57;5.17;;;9.20;99.90;;;;;;5098615;28;20473;-67
2021/11/07 19:13:37;;;;;;;6.27;5.77;;;9.30;99.90;;;;;;5098509;28;20439;-68
2021/11/07 19:16:05;;;;;;;5.70;5.20;;;9.30;99.90;;;;;;5098176;28;20454;-67